KCEU/CEU METAR and TAF weather

Enter ICAO airport designator
Station Type Date Time Source
KCEU METAR 2019/10/21 22:54 UTC NOAA

KCEU 212254Z AUTO 35003KT 9SM OVC038 18/17 A3001 RMK AO2 SLP158 T01830167


Station Type Date Time Source
KCEU Decoded METAR 2019/10/21 22:54 UTC NOAA

CLEMSON-OCONEE COUNTY AIRPORT , SC, United States (KCEU) 34-40N 082-53W 268M
Oct 21, 2019 - 06:54 PM EDT / 2019.10.21 2254 UTC
Wind: from the N (350 degrees) at 3 MPH (3 KT):0
Visibility: 9 mile(s):0
Sky conditions: overcast
Temperature: 64.9 F (18.3 C)
Dew Point: 62.1 F (16.7 C)
Relative Humidity: 90%
Pressure (altimeter): 30.01 in. Hg (1016 hPa)
ob: KCEU 212254Z AUTO 35003KT 9SM OVC038 18/17 A3001 RMK AO2 SLP158 T01830167
cycle: 23

Station Type Date Time Source
KCEU TAF UTC NOAA

Error!

Example: see airport list